Time;durP1;ratioP1;P1;durP2;ratioP2;P2;SDS_P1;SDS_P2;PMS_P1;PMS_P2;Temp;Humidity;BMP_temperature;BMP_pressure;BME280_temperature;BME280_humidity;BME280_pressure;Samples;Min_cycle;Max_cycle;Signal;HPM_P1;HPM_P2
2023/04/16 00:00:21;;;;;;;21.17;12.25;;;;;;;;;;5051434;28;20032;-71
2023/04/16 00:02:46;;;;;;;21.83;12.95;;;;;;;;;;5055907;28;20017;-70
2023/04/16 00:05:13;;;;;;;20.30;12.38;;;;;;;;;;5059664;28;20017;-70
2023/04/16 00:07:38;;;;;;;22.88;11.95;;;;;;;;;;5055828;28;20419;-70
2023/04/16 00:10:04;;;;;;;19.08;11.68;;;;;;;;;;5067219;28;20024;-70
2023/04/16 00:12:29;;;;;;;21.23;12.63;;;;;;;;;;5069461;28;20543;-70
2023/04/16 00:14:54;;;;;;;20.13;11.40;;;;;;;;;;5070480;28;20020;-69
2023/04/16 00:17:20;;;;;;;21.20;12.45;;;;;;;;;;5069460;28;20069;-72
2023/04/16 00:19:45;;;;;;;23.45;12.68;;;;;;;;;;5058573;28;20209;-69
2023/04/16 00:22:10;;;;;;;18.98;12.10;;;;;;;;;;5064244;28;20036;-70
2023/04/16 00:24:35;;;;;;;20.40;13.10;;;;;;;;;;5051369;28;20025;-70
2023/04/16 00:27:01;;;;;;;21.45;12.98;;;;;;;;;;5063979;28;20017;-70
2023/04/16 00:29:27;;;;;;;21.85;13.10;;;;;;;;;;5050978;28;20059;-69
2023/04/16 00:31:52;;;;;;;22.83;13.77;;;;;;;;;;5050644;28;20389;-71
2023/04/16 00:34:18;;;;;;;22.15;12.88;;;;;;;;;;5061257;28;20032;-67
2023/04/16 00:36:43;;;;;;;24.33;14.32;;;;;;;;;;5052587;28;20517;-70
2023/04/16 00:39:08;;;;;;;26.67;14.75;;;;;;;;;;5049002;28;20021;-69
2023/04/16 00:41:33;;;;;;;26.73;15.05;;;;;;;;;;5046743;28;20036;-68
2023/04/16 00:43:58;;;;;;;30.55;17.42;;;;;;;;;;5055928;28;20025;-69
2023/04/16 00:46:24;;;;;;;25.67;16.67;;;;;;;;;;5047059;28;20013;-69
2023/04/16 00:48:50;;;;;;;30.95;17.58;;;;;;;;;;5049749;28;20017;-68
2023/04/16 00:51:17;;;;;;;31.63;17.02;;;;;;;;;;5048942;28;20487;-68
2023/04/16 00:53:43;;;;;;;26.58;15.48;;;;;;;;;;5045696;28;20021;-69
2023/04/16 00:56:09;;;;;;;34.03;18.27;;;;;;;;;;5061943;28;20091;-69
2023/04/16 00:58:34;;;;;;;27.02;15.25;;;;;;;;;;5049964;28;20570;-69
2023/04/16 01:01:00;;;;;;;30.75;17.48;;;;;;;;;;5063530;28;20020;-70
2023/04/16 01:03:35;;;;;;;30.08;17.38;;;;;;;;;;5059675;28;20021;-69
2023/04/16 01:06:01;;;;;;;33.05;17.67;;;;;;;;;;5052158;28;20414;-70
2023/04/16 01:08:26;;;;;;;30.30;17.58;;;;;;;;;;5050127;28;20032;-69
2023/04/16 01:10:51;;;;;;;31.75;17.83;;;;;;;;;;5049641;28;20048;-69
2023/04/16 01:13:16;;;;;;;33.25;16.55;;;;;;;;;;5060375;28;20056;-69
2023/04/16 01:15:42;;;;;;;29.60;17.05;;;;;;;;;;5056340;28;20021;-70
2023/04/16 01:18:17;;;;;;;23.25;14.45;;;;;;;;;;5069622;28;20025;-69
2023/04/16 01:20:42;;;;;;;25.80;15.13;;;;;;;;;;5055922;28;20520;-71
2023/04/16 01:23:08;;;;;;;33.42;16.67;;;;;;;;;;5069562;28;20048;-68
2023/04/16 01:25:33;;;;;;;30.30;16.30;;;;;;;;;;5054386;28;20517;-68
2023/04/16 01:27:58;;;;;;;25.65;16.10;;;;;;;;;;5049810;28;20060;-68
2023/04/16 01:30:24;;;;;;;27.52;15.57;;;;;;;;;;5053351;28;20024;-69
2023/04/16 01:32:49;;;;;;;29.90;15.60;;;;;;;;;;5057170;28;20116;-68
2023/04/16 01:35:16;;;;;;;29.13;15.77;;;;;;;;;;5067785;28;20016;-65
2023/04/16 01:37:42;;;;;;;29.52;15.05;;;;;;;;;;5057855;28;20025;-67
2023/04/16 01:40:07;;;;;;;30.48;17.13;;;;;;;;;;5057041;28;20053;-68
2023/04/16 01:42:32;;;;;;;26.40;16.13;;;;;;;;;;5051562;28;20021;-69
2023/04/16 01:44:58;;;;;;;29.85;17.08;;;;;;;;;;5055095;28;20024;-67
2023/04/16 01:47:23;;;;;;;29.20;16.90;;;;;;;;;;5044008;28;20520;-67
2023/04/16 01:49:48;;;;;;;30.83;17.42;;;;;;;;;;5054392;28;20029;-67
2023/04/16 01:52:14;;;;;;;29.95;17.02;;;;;;;;;;5069384;28;20016;-67
2023/04/16 01:54:39;;;;;;;30.85;17.02;;;;;;;;;;5056592;28;20040;-68
2023/04/16 01:57:04;;;;;;;27.30;15.10;;;;;;;;;;5061424;28;20056;-68
2023/04/16 01:59:30;;;;;;;30.60;16.17;;;;;;;;;;5064311;28;20083;-68
2023/04/16 02:01:55;;;;;;;23.25;13.98;;;;;;;;;;5048096;28;20433;-68
2023/04/16 02:04:20;;;;;;;25.25;13.43;;;;;;;;;;5060920;28;20478;-70
2023/04/16 02:06:46;;;;;;;20.85;11.98;;;;;;;;;;5060366;28;20048;-70
2023/04/16 02:09:11;;;;;;;23.67;13.40;;;;;;;;;;5054564;28;20064;-70
2023/04/16 02:11:36;;;;;;;22.70;12.65;;;;;;;;;;5060274;28;20393;-69
2023/04/16 02:14:01;;;;;;;21.33;12.27;;;;;;;;;;5064854;28;20623;-69
2023/04/16 02:16:27;;;;;;;18.98;11.38;;;;;;;;;;5059768;28;20078;-68
2023/04/16 02:18:52;;;;;;;20.13;11.70;;;;;;;;;;5068858;28;20020;-68
2023/04/16 02:21:19;;;;;;;17.60;11.38;;;;;;;;;;5069014;28;20021;-69
2023/04/16 02:23:46;;;;;;;18.95;9.93;;;;;;;;;;5064593;28;20092;-69
2023/04/16 02:26:12;;;;;;;17.52;10.70;;;;;;;;;;5059441;28;20025;-71
2023/04/16 02:28:37;;;;;;;15.55;9.40;;;;;;;;;;5050162;28;20021;-70
2023/04/16 02:31:02;;;;;;;15.75;9.43;;;;;;;;;;5059711;28;20028;-67
2023/04/16 02:33:28;;;;;;;18.13;10.52;;;;;;;;;;5065281;28;20036;-70
2023/04/16 02:35:53;;;;;;;18.67;11.25;;;;;;;;;;5048894;28;20013;-68
2023/04/16 02:38:18;;;;;;;19.15;10.95;;;;;;;;;;5065667;28;20028;-69
2023/04/16 02:40:43;;;;;;;18.08;10.98;;;;;;;;;;5064521;28;20056;-68
2023/04/16 02:43:09;;;;;;;16.27;10.52;;;;;;;;;;5056676;28;20019;-69
2023/04/16 02:45:34;;;;;;;22.63;12.07;;;;;;;;;;5054444;28;20013;-68
2023/04/16 02:47:59;;;;;;;17.63;9.98;;;;;;;;;;5051657;28;20525;-68
2023/04/16 02:50:25;;;;;;;17.70;10.68;;;;;;;;;;5065827;28;20017;-68
2023/04/16 02:52:50;;;;;;;17.23;10.60;;;;;;;;;;5071010;28;20048;-68
2023/04/16 02:55:15;;;;;;;20.80;10.55;;;;;;;;;;5062501;28;20021;-68
2023/04/16 02:57:41;;;;;;;16.17;10.00;;;;;;;;;;5052481;28;20555;-68
2023/04/16 03:00:06;;;;;;;15.88;9.10;;;;;;;;;;5052434;28;20025;-70
2023/04/16 03:02:32;;;;;;;15.45;8.93;;;;;;;;;;5052867;28;20063;-68
2023/04/16 03:04:57;;;;;;;17.65;10.48;;;;;;;;;;5061409;28;20020;-68
2023/04/16 03:07:22;;;;;;;15.05;8.63;;;;;;;;;;5070166;28;20039;-69
2023/04/16 03:09:47;;;;;;;15.80;8.07;;;;;;;;;;5051661;28;20100;-69
2023/04/16 03:12:13;;;;;;;17.58;9.02;;;;;;;;;;5065437;28;20145;-69
2023/04/16 03:14:38;;;;;;;14.65;8.18;;;;;;;;;;5060549;28;20469;-70
2023/04/16 03:17:03;;;;;;;15.07;8.25;;;;;;;;;;5057125;28;20025;-70
2023/04/16 03:19:29;;;;;;;13.68;7.93;;;;;;;;;;5050697;28;20024;-69
2023/04/16 03:21:54;;;;;;;15.02;8.38;;;;;;;;;;5067231;28;20016;-68
2023/04/16 03:24:20;;;;;;;13.20;7.47;;;;;;;;;;5071258;28;20393;-67
2023/04/16 03:26:45;;;;;;;13.80;7.88;;;;;;;;;;5068659;28;20026;-69
2023/04/16 03:29:10;;;;;;;16.30;9.02;;;;;;;;;;5060080;28;20024;-69
2023/04/16 03:31:35;;;;;;;15.05;8.55;;;;;;;;;;5069706;28;20279;-69
2023/04/16 03:34:00;;;;;;;15.95;8.60;;;;;;;;;;5060022;28;20039;-70
2023/04/16 03:36:26;;;;;;;14.50;8.75;;;;;;;;;;5071682;28;20100;-70
2023/04/16 03:38:51;;;;;;;15.95;9.48;;;;;;;;;;5063425;28;20025;-70
2023/04/16 03:41:16;;;;;;;15.63;8.68;;;;;;;;;;5050787;28;20017;-70
2023/04/16 03:43:42;;;;;;;16.45;9.30;;;;;;;;;;5056559;28;20020;-69
2023/04/16 03:46:07;;;;;;;15.45;8.88;;;;;;;;;;5049922;28;20019;-71
2023/04/16 03:48:32;;;;;;;14.82;8.45;;;;;;;;;;5054482;28;20020;-69
2023/04/16 03:51:00;;;;;;;14.85;8.70;;;;;;;;;;5065328;28;20035;-70
2023/04/16 03:53:26;;;;;;;14.93;7.88;;;;;;;;;;5062841;28;20532;-69
2023/04/16 03:55:51;;;;;;;16.90;8.95;;;;;;;;;;5051825;28;20056;-69
2023/04/16 03:58:16;;;;;;;13.43;7.60;;;;;;;;;;5062191;28;20211;-69
2023/04/16 04:00:42;;;;;;;13.18;7.13;;;;;;;;;;5052432;28;20530;-69
2023/04/16 04:03:08;;;;;;;14.13;8.65;;;;;;;;;;5071182;28;20044;-69
2023/04/16 04:05:39;;;;;;;16.42;8.18;;;;;;;;;;5069884;28;20016;-69
2023/04/16 04:08:05;;;;;;;14.10;8.05;;;;;;;;;;5059606;28;20024;-68
2023/04/16 04:10:31;;;;;;;15.32;7.85;;;;;;;;;;5056871;28;20020;-67
2023/04/16 04:12:56;;;;;;;15.90;9.52;;;;;;;;;;5070766;28;20024;-69
2023/04/16 04:15:22;;;;;;;13.32;7.78;;;;;;;;;;5070268;28;20466;-68
2023/04/16 04:17:47;;;;;;;15.63;9.20;;;;;;;;;;5070768;28;20020;-68
2023/04/16 04:20:12;;;;;;;15.52;8.55;;;;;;;;;;5070446;28;20024;-68
2023/04/16 04:22:40;;;;;;;18.20;10.40;;;;;;;;;;5068945;28;20043;-69
2023/04/16 04:25:05;;;;;;;18.88;10.18;;;;;;;;;;5068779;28;20497;-69
2023/04/16 04:27:30;;;;;;;18.13;10.05;;;;;;;;;;5058135;28;20039;-69
2023/04/16 04:29:56;;;;;;;22.38;10.55;;;;;;;;;;5070468;28;20031;-70
2023/04/16 04:32:22;;;;;;;20.70;11.50;;;;;;;;;;5070162;28;20024;-70
2023/04/16 04:34:47;;;;;;;20.30;11.50;;;;;;;;;;5069798;28;20466;-70
2023/04/16 04:37:12;;;;;;;22.17;11.90;;;;;;;;;;5070276;28;20028;-69
2023/04/16 04:39:40;;;;;;;19.85;10.38;;;;;;;;;;5056760;28;20072;-70
2023/04/16 04:42:05;;;;;;;18.80;10.73;;;;;;;;;;5057645;28;20547;-69
2023/04/16 04:44:30;;;;;;;17.10;9.30;;;;;;;;;;5055268;28;20029;-70
2023/04/16 04:46:56;;;;;;;15.02;9.35;;;;;;;;;;5032627;28;20021;-68
2023/04/16 04:49:21;;;;;;;11.35;6.95;;;;;;;;;;5046183;28;20021;-68
2023/04/16 04:51:46;;;;;;;13.45;7.90;;;;;;;;;;5049999;28;20029;-69
2023/04/16 04:54:12;;;;;;;14.02;7.32;;;;;;;;;;5049684;28;20012;-69
2023/04/16 04:56:37;;;;;;;13.98;7.47;;;;;;;;;;5057663;28;20527;-67
2023/04/16 04:59:03;;;;;;;16.83;8.05;;;;;;;;;;5056479;28;20031;-69
2023/04/16 05:01:28;;;;;;;13.52;7.95;;;;;;;;;;5062501;28;20082;-69
2023/04/16 05:03:53;;;;;;;16.13;7.95;;;;;;;;;;5063345;28;20095;-69
2023/04/16 05:06:18;;;;;;;15.00;8.40;;;;;;;;;;5057446;28;20092;-70
2023/04/16 05:08:43;;;;;;;14.88;8.25;;;;;;;;;;5070178;28;20108;-70
2023/04/16 05:11:09;;;;;;;15.38;7.93;;;;;;;;;;5061746;28;20036;-70
2023/04/16 05:13:34;;;;;;;16.75;8.52;;;;;;;;;;5050504;28;20049;-69
2023/04/16 05:16:00;;;;;;;14.70;7.28;;;;;;;;;;5062126;28;20029;-69
2023/04/16 05:18:25;;;;;;;13.48;6.55;;;;;;;;;;5049723;28;20509;-69
2023/04/16 05:20:50;;;;;;;12.15;6.72;;;;;;;;;;5056908;28;20053;-69
2023/04/16 05:23:16;;;;;;;13.70;6.60;;;;;;;;;;5055905;28;20104;-68
2023/04/16 05:25:41;;;;;;;11.25;5.80;;;;;;;;;;5068844;28;20035;-68
2023/04/16 05:28:06;;;;;;;14.13;6.70;;;;;;;;;;5063626;28;20032;-68
2023/04/16 05:30:31;;;;;;;11.70;6.30;;;;;;;;;;5049771;28;20159;-68
2023/04/16 05:32:56;;;;;;;10.75;6.38;;;;;;;;;;5050166;28;20266;-70
2023/04/16 05:35:22;;;;;;;11.98;6.28;;;;;;;;;;5057359;28;20500;-69
2023/04/16 05:37:47;;;;;;;12.13;6.88;;;;;;;;;;5069000;28;20371;-67
2023/04/16 05:40:12;;;;;;;13.20;5.85;;;;;;;;;;5055537;28;20474;-68
2023/04/16 05:42:38;;;;;;;11.43;5.93;;;;;;;;;;5053425;28;20021;-67
2023/04/16 05:45:03;;;;;;;13.48;5.53;;;;;;;;;;5048738;28;20470;-67
2023/04/16 05:47:29;;;;;;;8.63;5.35;;;;;;;;;;5045438;28;20566;-68
2023/04/16 05:49:54;;;;;;;9.40;5.07;;;;;;;;;;5049099;28;20033;-69
2023/04/16 05:52:20;;;;;;;8.82;4.90;;;;;;;;;;5060593;28;20024;-67
2023/04/16 05:54:45;;;;;;;8.60;4.97;;;;;;;;;;5049187;28;20490;-69
2023/04/16 05:57:10;;;;;;;10.55;5.30;;;;;;;;;;5048749;28;20028;-68
2023/04/16 05:59:36;;;;;;;11.43;6.70;;;;;;;;;;5054125;28;20373;-68
2023/04/16 06:02:01;;;;;;;12.60;7.60;;;;;;;;;;5056891;28;20021;-68
2023/04/16 06:04:26;;;;;;;13.48;6.90;;;;;;;;;;5048154;28;20025;-68
2023/04/16 06:06:51;;;;;;;11.35;6.63;;;;;;;;;;5060616;28;20587;-66
2023/04/16 06:09:17;;;;;;;11.60;7.35;;;;;;;;;;5068833;28;20443;-68
2023/04/16 06:11:43;;;;;;;13.25;7.30;;;;;;;;;;5055562;28;20029;-69
2023/04/16 06:14:09;;;;;;;13.07;7.70;;;;;;;;;;5066819;28;20032;-65
2023/04/16 06:16:35;;;;;;;14.43;7.70;;;;;;;;;;5068974;28;20016;-67
2023/04/16 06:19:00;;;;;;;12.77;7.03;;;;;;;;;;5053400;28;20104;-68
2023/04/16 06:21:25;;;;;;;12.93;7.50;;;;;;;;;;5050733;28;20506;-68
2023/04/16 06:23:50;;;;;;;11.38;6.65;;;;;;;;;;5056837;28;20012;-67
2023/04/16 06:26:16;;;;;;;11.73;6.18;;;;;;;;;;5060342;28;20053;-68
2023/04/16 06:28:41;;;;;;;12.10;5.82;;;;;;;;;;5061323;28;20147;-70
2023/04/16 06:31:06;;;;;;;11.00;5.50;;;;;;;;;;5054048;28;20048;-69
2023/04/16 06:33:31;;;;;;;9.77;5.85;;;;;;;;;;5069985;28;20032;-69
2023/04/16 06:35:57;;;;;;;9.70;5.78;;;;;;;;;;5063948;28;20029;-67
2023/04/16 06:38:22;;;;;;;8.77;5.35;;;;;;;;;;5054777;28;20017;-67
2023/04/16 06:40:48;;;;;;;9.73;5.78;;;;;;;;;;5060687;28;20698;-69
2023/04/16 06:43:14;;;;;;;8.93;5.18;;;;;;;;;;5058249;28;20582;-68
2023/04/16 06:45:39;;;;;;;9.80;5.30;;;;;;;;;;5051452;28;20052;-67
2023/04/16 06:48:05;;;;;;;8.45;4.53;;;;;;;;;;5052089;28;20052;-68
2023/04/16 06:50:30;;;;;;;8.77;5.43;;;;;;;;;;5052328;28;20013;-67
2023/04/16 06:52:55;;;;;;;9.40;4.18;;;;;;;;;;5052308;28;20046;-72
2023/04/16 06:55:20;;;;;;;7.82;4.15;;;;;;;;;;5051128;28;20100;-68
2023/04/16 06:57:46;;;;;;;7.30;3.83;;;;;;;;;;5050707;28;20025;-65
2023/04/16 07:00:11;;;;;;;6.68;4.13;;;;;;;;;;5065704;28;20387;-66
2023/04/16 07:02:36;;;;;;;7.00;4.05;;;;;;;;;;5064556;28;20016;-69
2023/04/16 07:05:02;;;;;;;6.68;3.63;;;;;;;;;;5051786;28;20474;-67
2023/04/16 07:07:27;;;;;;;7.15;3.58;;;;;;;;;;5063991;28;20028;-68
2023/04/16 07:09:52;;;;;;;7.43;3.60;;;;;;;;;;5058257;28;20047;-69
2023/04/16 07:12:18;;;;;;;6.03;3.50;;;;;;;;;;5056500;28;20021;-69
2023/04/16 07:14:43;;;;;;;5.70;3.08;;;;;;;;;;5054050;28;20024;-71
2023/04/16 07:17:09;;;;;;;7.40;3.30;;;;;;;;;;5051838;28;20482;-68
2023/04/16 07:19:34;;;;;;;9.82;3.95;;;;;;;;;;5037410;28;20017;-69
2023/04/16 07:22:00;;;;;;;6.20;3.70;;;;;;;;;;5046367;28;20482;-68
2023/04/16 07:24:25;;;;;;;8.27;3.83;;;;;;;;;;5047668;28;20056;-69
2023/04/16 07:26:50;;;;;;;7.28;3.55;;;;;;;;;;5049273;28;20087;-67
2023/04/16 07:29:15;;;;;;;9.82;4.18;;;;;;;;;;5047926;28;20413;-69
2023/04/16 07:31:41;;;;;;;6.93;4.07;;;;;;;;;;5053977;28;20067;-69
2023/04/16 07:34:06;;;;;;;8.52;3.83;;;;;;;;;;5044634;28;20032;-70
2023/04/16 07:36:31;;;;;;;6.90;3.92;;;;;;;;;;5050028;28;20128;-68
2023/04/16 07:38:56;;;;;;;8.13;3.88;;;;;;;;;;5045269;28;20031;-69
2023/04/16 07:41:22;;;;;;;8.40;4.32;;;;;;;;;;5049954;28;20017;-68
2023/04/16 07:43:47;;;;;;;6.25;3.83;;;;;;;;;;5054238;28;20497;-68
2023/04/16 07:46:12;;;;;;;8.55;3.97;;;;;;;;;;5049781;28;20074;-70
2023/04/16 07:48:37;;;;;;;6.72;3.60;;;;;;;;;;5056613;28;20055;-69
2023/04/16 07:51:03;;;;;;;6.15;3.72;;;;;;;;;;5040378;28;20029;-69
2023/04/16 07:53:28;;;;;;;9.70;3.67;;;;;;;;;;5040851;28;20032;-71
2023/04/16 07:55:54;;;;;;;7.35;3.85;;;;;;;;;;5040823;28;20037;-69
2023/04/16 07:58:19;;;;;;;6.03;3.17;;;;;;;;;;5040736;28;20028;-69
2023/04/16 08:00:45;;;;;;;7.05;4.47;;;;;;;;;;5041380;28;20140;-69
2023/04/16 08:03:10;;;;;;;6.70;3.20;;;;;;;;;;5040113;28;20438;-70
2023/04/16 08:05:35;;;;;;;5.53;2.78;;;;;;;;;;5041403;28;20779;-69
2023/04/16 08:08:00;;;;;;;5.13;3.00;;;;;;;;;;5045199;28;20552;-71
2023/04/16 08:10:26;;;;;;;6.75;3.25;;;;;;;;;;5039348;28;20115;-69
2023/04/16 08:12:52;;;;;;;5.43;3.10;;;;;;;;;;5041625;28;20115;-70
2023/04/16 08:15:17;;;;;;;8.57;3.67;;;;;;;;;;5041221;28;20035;-71
2023/04/16 08:17:43;;;;;;;6.43;3.25;;;;;;;;;;5038663;28;20531;-69
2023/04/16 08:20:08;;;;;;;6.03;3.30;;;;;;;;;;5038062;28;20029;-70
2023/04/16 08:22:34;;;;;;;6.35;3.80;;;;;;;;;;5042965;28;20498;-69
2023/04/16 08:24:59;;;;;;;6.28;3.50;;;;;;;;;;5039839;28;20509;-70
2023/04/16 08:27:25;;;;;;;5.60;3.10;;;;;;;;;;5043378;28;20029;-68
2023/04/16 08:29:50;;;;;;;3.63;2.30;;;;;;;;;;5041974;28;20072;-70
2023/04/16 08:32:15;;;;;;;9.25;4.22;;;;;;;;;;5043175;28;20168;-70
2023/04/16 08:34:40;;;;;;;8.75;4.47;;;;;;;;;;5047702;28;20118;-72
2023/04/16 08:37:06;;;;;;;6.38;3.60;;;;;;;;;;5048998;28;20039;-71
2023/04/16 08:39:31;;;;;;;9.55;5.20;;;;;;;;;;5047176;28;20021;-67
2023/04/16 08:41:57;;;;;;;9.15;5.15;;;;;;;;;;5043217;28;20049;-69
2023/04/16 08:44:29;;;;;;;12.45;6.95;;;;;;;;;;5048623;28;20048;-70
2023/04/16 08:46:56;;;;;;;10.68;6.25;;;;;;;;;;5054920;28;20013;-69
2023/04/16 08:49:22;;;;;;;12.55;6.95;;;;;;;;;;5059440;28;20103;-65
2023/04/16 08:51:51;;;;;;;14.52;7.90;;;;;;;;;;5050991;28;20131;-69
2023/04/16 08:54:24;;;;;;;16.25;7.80;;;;;;;;;;5027009;28;20032;-70
2023/04/16 08:56:50;;;;;;;15.32;6.95;;;;;;;;;;5032287;28;20036;-69
2023/04/16 08:59:15;;;;;;;11.75;6.82;;;;;;;;;;5033768;28;20031;-72
2023/04/16 09:01:41;;;;;;;15.65;8.20;;;;;;;;;;5034489;28;20107;-69
2023/04/16 09:04:06;;;;;;;13.80;7.38;;;;;;;;;;5032521;28;20017;-68
2023/04/16 09:06:32;;;;;;;15.60;6.78;;;;;;;;;;5033164;28;20108;-69
2023/04/16 09:08:58;;;;;;;12.68;7.38;;;;;;;;;;5036051;28;20148;-70
2023/04/16 09:11:24;;;;;;;15.88;8.73;;;;;;;;;;5032062;28;20562;-71
2023/04/16 09:13:50;;;;;;;17.58;8.05;;;;;;;;;;5033456;28;20852;-69
2023/04/16 09:16:16;;;;;;;21.08;8.98;;;;;;;;;;5034255;28;20494;-68
2023/04/16 09:18:41;;;;;;;12.50;7.65;;;;;;;;;;5034846;28;20025;-70
2023/04/16 09:21:08;;;;;;;15.45;7.82;;;;;;;;;;5034192;28;20025;-71
2023/04/16 09:23:34;;;;;;;15.40;8.00;;;;;;;;;;5034292;28;20021;-69
2023/04/16 09:25:59;;;;;;;14.68;7.63;;;;;;;;;;5035013;28;20028;-69
2023/04/16 09:28:44;;;;;;;13.93;7.63;;;;;;;;;;5035221;28;20052;-70
2023/04/16 09:31:10;;;;;;;16.52;9.27;;;;;;;;;;5036930;28;20028;-68
2023/04/16 09:33:35;;;;;;;14.88;8.77;;;;;;;;;;5032174;28;20030;-69
2023/04/16 09:36:01;;;;;;;15.88;8.18;;;;;;;;;;5028606;28;20099;-67
2023/04/16 09:38:44;;;;;;;13.50;8.10;;;;;;;;;;5031388;28;20065;-69
2023/04/16 09:41:09;;;;;;;14.65;7.82;;;;;;;;;;5028621;28;20602;-70
2023/04/16 09:43:35;;;;;;;17.98;10.20;;;;;;;;;;5032081;28;20028;-68
2023/04/16 09:46:03;;;;;;;15.63;8.48;;;;;;;;;;5028913;28;20505;-69
2023/04/16 09:48:29;;;;;;;13.38;7.68;;;;;;;;;;5030331;28;20032;-69
2023/04/16 09:50:54;;;;;;;12.23;7.70;;;;;;;;;;5033652;28;20029;-71
2023/04/16 09:53:24;;;;;;;11.52;6.82;;;;;;;;;;5037492;28;20025;-69
2023/04/16 09:55:49;;;;;;;10.30;6.47;;;;;;;;;;5037904;28;20032;-69
2023/04/16 09:58:17;;;;;;;13.60;6.85;;;;;;;;;;5035868;28;20091;-69
2023/04/16 10:00:42;;;;;;;11.45;7.30;;;;;;;;;;5035435;28;20052;-69
2023/04/16 10:03:07;;;;;;;14.30;7.88;;;;;;;;;;5036480;28;20084;-67
2023/04/16 10:05:33;;;;;;;10.68;6.43;;;;;;;;;;5034181;28;20052;-69
2023/04/16 10:07:59;;;;;;;14.82;9.23;;;;;;;;;;5036556;28;20036;-70
2023/04/16 10:10:24;;;;;;;9.45;5.80;;;;;;;;;;5037372;28;20645;-70
2023/04/16 10:12:50;;;;;;;10.38;6.60;;;;;;;;;;5038660;28;20028;-69
2023/04/16 10:15:15;;;;;;;10.23;5.90;;;;;;;;;;5035124;28;20036;-68
2023/04/16 10:17:41;;;;;;;9.73;6.13;;;;;;;;;;5037125;28;20025;-69
2023/04/16 10:20:07;;;;;;;14.98;7.00;;;;;;;;;;5037767;28;20025;-70
2023/04/16 10:22:32;;;;;;;14.70;7.32;;;;;;;;;;5022364;28;20048;-69
2023/04/16 10:24:57;;;;;;;14.77;9.35;;;;;;;;;;5013992;28;20021;-70
2023/04/16 10:27:23;;;;;;;9.93;6.13;;;;;;;;;;5027430;28;20029;-69
2023/04/16 10:29:48;;;;;;;12.07;7.68;;;;;;;;;;5025261;28;20104;-71
2023/04/16 10:32:15;;;;;;;12.90;7.75;;;;;;;;;;5026276;28;20051;-70
2023/04/16 10:34:40;;;;;;;10.20;6.38;;;;;;;;;;5030836;28;20032;-71
2023/04/16 10:37:06;;;;;;;14.15;6.22;;;;;;;;;;5028608;28;20388;-70
2023/04/16 10:39:35;;;;;;;8.77;5.20;;;;;;;;;;5030772;28;20032;-72
2023/04/16 10:42:07;;;;;;;12.25;6.80;;;;;;;;;;5026633;28;20298;-70
2023/04/16 10:44:33;;;;;;;14.68;6.00;;;;;;;;;;5022632;28;20024;-68
2023/04/16 10:46:58;;;;;;;11.52;6.95;;;;;;;;;;5028881;28;20029;-69
2023/04/16 10:49:24;;;;;;;14.63;6.95;;;;;;;;;;5026262;28;20033;-69
2023/04/16 10:51:53;;;;;;;10.10;5.30;;;;;;;;;;5024773;28;20525;-68
2023/04/16 10:54:18;;;;;;;11.70;6.45;;;;;;;;;;5031858;28;20390;-70
2023/04/16 10:56:45;;;;;;;9.18;4.93;;;;;;;;;;5026251;28;20549;-70
2023/04/16 10:59:10;;;;;;;9.60;5.65;;;;;;;;;;5021636;28;20029;-70
2023/04/16 11:01:36;;;;;;;10.15;5.30;;;;;;;;;;5022751;28;20028;-71
2023/04/16 11:04:20;;;;;;;8.00;4.78;;;;;;;;;;5018881;28;20025;-70
2023/04/16 11:07:04;;;;;;;8.57;4.53;;;;;;;;;;5021873;28;20104;-70
2023/04/16 11:09:48;;;;;;;9.32;5.20;;;;;;;;;;5021057;28;20084;-69
2023/04/16 11:12:15;;;;;;;19.25;10.57;;;;;;;;;;5026086;28;20021;-71
2023/04/16 11:14:40;;;;;;;9.68;5.35;;;;;;;;;;5031220;28;20124;-67
2023/04/16 11:17:06;;;;;;;5.88;3.50;;;;;;;;;;5031609;28;20086;-70
2023/04/16 11:19:31;;;;;;;5.78;3.42;;;;;;;;;;5030385;28;20075;-72
2023/04/16 11:21:57;;;;;;;6.15;3.38;;;;;;;;;;5032074;28;20150;-67
2023/04/16 11:24:22;;;;;;;5.88;3.10;;;;;;;;;;5031984;28;20028;-69
2023/04/16 11:26:50;;;;;;;5.82;3.20;;;;;;;;;;5031682;28;20107;-68
2023/04/16 11:29:15;;;;;;;7.22;3.80;;;;;;;;;;5027427;28;20128;-70
2023/04/16 11:31:41;;;;;;;14.50;5.63;;;;;;;;;;5030355;28;20527;-69
2023/04/16 11:34:07;;;;;;;7.88;3.40;;;;;;;;;;5048540;22;20115;-69
2023/04/16 11:36:45;;;;;;;6.63;3.50;;;;;;;;;;5042658;28;20028;-68
2023/04/16 11:39:10;;;;;;;6.85;3.13;;;;;;;;;;5036591;28;20044;-70
2023/04/16 11:41:41;;;;;;;5.15;2.95;;;;;;;;;;5037721;28;20021;-67
2023/04/16 11:44:36;;;;;;;6.95;3.15;;;;;;;;;;5016174;28;20498;-68
2023/04/16 11:47:04;;;;;;;8.90;4.03;;;;;;;;;;5003713;28;20493;-68
2023/04/16 11:49:29;;;;;;;7.22;4.20;;;;;;;;;;5031993;28;20083;-71
2023/04/16 11:51:55;;;;;;;6.40;3.38;;;;;;;;;;5024849;28;20037;-67
2023/04/16 11:54:21;;;;;;;5.47;3.33;;;;;;;;;;5024034;28;20658;-69
2023/04/16 11:56:47;;;;;;;5.80;3.58;;;;;;;;;;5036245;28;20024;-69
2023/04/16 11:59:22;;;;;;;5.53;3.33;;;;;;;;;;5034887;28;20028;-67
2023/04/16 12:01:48;;;;;;;7.93;3.55;;;;;;;;;;5034900;28;20035;-69
2023/04/16 12:04:15;;;;;;;7.28;3.92;;;;;;;;;;5036196;28;20575;-72
2023/04/16 12:06:40;;;;;;;7.00;4.57;;;;;;;;;;5035788;28;20049;-68
2023/04/16 12:09:24;;;;;;;7.10;3.97;;;;;;;;;;5035068;28;20044;-69
2023/04/16 12:11:50;;;;;;;7.15;3.80;;;;;;;;;;5036135;28;20036;-68
2023/04/16 12:14:15;;;;;;;8.13;4.03;;;;;;;;;;5038459;28;20051;-70
2023/04/16 12:16:40;;;;;;;7.65;3.85;;;;;;;;;;5028433;28;20145;-69
2023/04/16 12:19:09;;;;;;;8.63;4.43;;;;;;;;;;5040409;28;20503;-70
2023/04/16 12:21:35;;;;;;;5.53;3.30;;;;;;;;;;5049459;28;20050;-72
2023/04/16 12:24:00;;;;;;;8.38;4.60;;;;;;;;;;5047390;28;20039;-68
2023/04/16 12:26:26;;;;;;;8.70;3.97;;;;;;;;;;5040299;28;20033;-69
2023/04/16 12:28:51;;;;;;;9.18;4.13;;;;;;;;;;5020024;28;20046;-70
2023/04/16 12:31:16;;;;;;;8.32;4.82;;;;;;;;;;5036702;28;20032;-67
2023/04/16 12:33:41;;;;;;;7.38;4.53;;;;;;;;;;5045707;28;20126;-66
2023/04/16 12:36:17;;;;;;;7.85;4.97;;;;;;;;;;5027537;28;20075;-68
2023/04/16 12:38:42;;;;;;;7.78;4.05;;;;;;;;;;5044394;28;20033;-67
2023/04/16 12:41:07;;;;;;;7.57;3.50;;;;;;;;;;5042055;28;20468;-68
2023/04/16 12:43:33;;;;;;;7.70;4.32;;;;;;;;;;5047383;28;20080;-66
2023/04/16 12:45:58;;;;;;;7.22;3.78;;;;;;;;;;5048417;28;20779;-67
2023/04/16 12:48:23;;;;;;;7.95;3.47;;;;;;;;;;5030192;28;20430;-67
2023/04/16 12:50:48;;;;;;;8.80;4.03;;;;;;;;;;5038224;28;20016;-66
2023/04/16 12:53:13;;;;;;;8.38;4.10;;;;;;;;;;5045203;28;20404;-68
2023/04/16 12:55:39;;;;;;;9.48;4.90;;;;;;;;;;5045027;28;20051;-66
2023/04/16 12:58:05;;;;;;;8.32;4.65;;;;;;;;;;5041190;28;20140;-68
2023/04/16 13:00:30;;;;;;;9.48;5.30;;;;;;;;;;5047530;28;20040;-67
2023/04/16 13:02:56;;;;;;;10.75;5.93;;;;;;;;;;5048534;28;20072;-68
2023/04/16 13:05:21;;;;;;;11.32;5.43;;;;;;;;;;5040706;28;20047;-68
2023/04/16 13:07:46;;;;;;;12.30;5.95;;;;;;;;;;5043441;28;20077;-69
2023/04/16 13:10:12;;;;;;;9.25;5.63;;;;;;;;;;5044325;28;20025;-70
2023/04/16 13:12:38;;;;;;;11.60;5.63;;;;;;;;;;5046427;28;20045;-69
2023/04/16 13:15:03;;;;;;;11.52;5.72;;;;;;;;;;5017680;28;20528;-71
2023/04/16 13:17:28;;;;;;;9.00;5.35;;;;;;;;;;5037071;28;20036;-66
2023/04/16 13:19:54;;;;;;;13.80;5.90;;;;;;;;;;5037966;28;20482;-69
2023/04/16 13:22:19;;;;;;;9.50;5.43;;;;;;;;;;5019953;28;20017;-71
2023/04/16 13:24:45;;;;;;;9.27;4.57;;;;;;;;;;5038672;28;20025;-69
2023/04/16 13:27:11;;;;;;;11.93;6.22;;;;;;;;;;5037202;28;20024;-67
2023/04/16 13:29:36;;;;;;;10.23;4.70;;;;;;;;;;5036293;28;20035;-67
2023/04/16 13:32:02;;;;;;;9.55;5.82;;;;;;;;;;5032937;28;20413;-66
2023/04/16 13:34:27;;;;;;;14.27;6.50;;;;;;;;;;5042215;28;20062;-67
2023/04/16 13:36:52;;;;;;;11.95;6.40;;;;;;;;;;5025218;28;20033;-66
2023/04/16 13:39:18;;;;;;;11.68;6.70;;;;;;;;;;5039939;28;20035;-67
2023/04/16 13:41:43;;;;;;;11.52;6.65;;;;;;;;;;5043240;28;20025;-67
2023/04/16 13:44:08;;;;;;;12.05;7.05;;;;;;;;;;5026783;28;20112;-67
2023/04/16 13:46:33;;;;;;;10.73;6.82;;;;;;;;;;5044912;28;20075;-67
2023/04/16 13:48:58;;;;;;;12.25;6.47;;;;;;;;;;5047011;28;20086;-70
2023/04/16 13:51:24;;;;;;;11.90;7.13;;;;;;;;;;5037899;28;20083;-69
2023/04/16 13:53:49;;;;;;;10.68;5.82;;;;;;;;;;5042612;28;20040;-65
2023/04/16 13:56:14;;;;;;;9.90;6.00;;;;;;;;;;5042368;28;20100;-70
2023/04/16 13:58:40;;;;;;;11.90;7.10;;;;;;;;;;5044381;28;20021;-68
2023/04/16 14:01:05;;;;;;;11.90;6.38;;;;;;;;;;5041173;28;20806;-67
2023/04/16 14:03:35;;;;;;;11.18;6.15;;;;;;;;;;5046581;28;20100;-68
2023/04/16 14:06:03;;;;;;;9.98;6.07;;;;;;;;;;5043189;28;20434;-67
2023/04/16 14:08:29;;;;;;;10.73;6.60;;;;;;;;;;5024025;28;20549;-68
2023/04/16 14:10:55;;;;;;;13.32;6.65;;;;;;;;;;5024584;28;20105;-76
2023/04/16 14:13:20;;;;;;;11.68;6.70;;;;;;;;;;5040606;28;20082;-67
2023/04/16 14:15:45;;;;;;;13.05;6.70;;;;;;;;;;5039936;28;20173;-68
2023/04/16 14:18:10;;;;;;;12.90;7.22;;;;;;;;;;5046349;28;20020;-69
2023/04/16 14:20:38;;;;;;;11.73;6.30;;;;;;;;;;5042627;28;20017;-68
2023/04/16 14:23:03;;;;;;;10.55;6.05;;;;;;;;;;5036557;28;20013;-67